sensor_id;sensor_type;location;lat;lon;timestamp;pressure;altitude;pressure_sealevel;temperature;humidity
57234;BME280;43090;52.604;13.318;2023-08-20T00:01:24;101272.22;;;24.03;100.00
57234;BME280;43090;52.604;13.318;2023-08-20T00:03:51;101281.28;;;24.04;100.00
57234;BME280;43090;52.604;13.318;2023-08-20T00:06:19;101285.72;;;24.05;100.00
57234;BME280;43090;52.604;13.318;2023-08-20T00:08:46;101279.22;;;24.06;100.00
57234;BME280;43090;52.604;13.318;2023-08-20T00:14:51;101283.66;;;24.07;100.00
57234;BME280;43090;52.604;13.318;2023-08-20T00:17:10;101295.19;;;24.17;100.00
57234;BME280;43090;52.604;13.318;2023-08-20T00:19:37;101293.97;;;24.20;100.00
57234;BME280;43090;52.604;13.318;2023-08-20T00:22:04;101290.19;;;24.21;99.43
57234;BME280;43090;52.604;13.318;2023-08-20T00:24:30;101292.56;;;24.24;98.55
57234;BME280;43090;52.604;13.318;2023-08-20T00:26:57;101290.84;;;24.08;98.93
57234;BME280;43090;52.604;13.318;2023-08-20T00:29:23;101292.69;;;24.07;99.11
57234;BME280;43090;52.604;13.318;2023-08-20T00:31:49;101297.78;;;24.10;98.65
57234;BME280;43090;52.604;13.318;2023-08-20T00:34:16;101294.19;;;23.95;99.37
57234;BME280;43090;52.604;13.318;2023-08-20T00:36:42;101294.00;;;23.97;99.60
57234;BME280;43090;52.604;13.318;2023-08-20T00:39:09;101302.75;;;23.92;99.13
57234;BME280;43090;52.604;13.318;2023-08-20T00:41:35;101302.59;;;23.85;98.77
57234;BME280;43090;52.604;13.318;2023-08-20T00:44:02;101307.78;;;23.80;99.00
57234;BME280;43090;52.604;13.318;2023-08-20T00:46:29;101299.81;;;23.70;99.14
57234;BME280;43090;52.604;13.318;2023-08-20T00:48:56;101305.78;;;23.74;99.26
57234;BME280;43090;52.604;13.318;2023-08-20T00:51:23;101302.34;;;23.72;99.26
57234;BME280;43090;52.604;13.318;2023-08-20T00:53:50;101314.69;;;23.68;99.48
57234;BME280;43090;52.604;13.318;2023-08-20T00:56:17;101314.81;;;23.74;98.41
57234;BME280;43090;52.604;13.318;2023-08-20T00:58:44;101312.97;;;23.67;98.53
57234;BME280;43090;52.604;13.318;2023-08-20T01:01:10;101315.06;;;23.65;98.34
57234;BME280;43090;52.604;13.318;2023-08-20T01:03:37;101315.19;;;23.71;98.08
57234;BME280;43090;52.604;13.318;2023-08-20T01:08:52;101327.72;;;23.66;98.03
57234;BME280;43090;52.604;13.318;2023-08-20T01:11:25;101318.56;;;23.73;98.04
57234;BME280;43090;52.604;13.318;2023-08-20T01:13:55;101330.25;;;23.67;99.12
57234;BME280;43090;52.604;13.318;2023-08-20T01:16:24;101327.41;;;23.60;100.00
57234;BME280;43090;52.604;13.318;2023-08-20T01:18:50;101327.16;;;23.47;99.80
57234;BME280;43090;52.604;13.318;2023-08-20T01:21:22;101333.19;;;23.66;99.61
57234;BME280;43090;52.604;13.318;2023-08-20T01:29:10;101333.25;;;23.49;100.00
57234;BME280;43090;52.604;13.318;2023-08-20T01:31:38;101333.06;;;23.51;100.00
57234;BME280;43090;52.604;13.318;2023-08-20T01:34:04;101328.72;;;23.65;100.00
57234;BME280;43090;52.604;13.318;2023-08-20T01:52:29;101338.91;;;23.08;100.00
57234;BME280;43090;52.604;13.318;2023-08-20T01:54:56;101345.31;;;23.32;100.00
57234;BME280;43090;52.604;13.318;2023-08-20T01:57:22;101343.53;;;23.47;100.00
57234;BME280;43090;52.604;13.318;2023-08-20T01:59:49;101346.53;;;23.60;100.00
57234;BME280;43090;52.604;13.318;2023-08-20T02:02:15;101345.78;;;23.67;100.00
57234;BME280;43090;52.604;13.318;2023-08-20T02:04:42;101354.50;;;23.39;100.00
57234;BME280;43090;52.604;13.318;2023-08-20T02:07:08;101351.44;;;23.34;100.00
57234;BME280;43090;52.604;13.318;2023-08-20T02:09:35;101348.69;;;23.65;100.00
57234;BME280;43090;52.604;13.318;2023-08-20T02:12:01;101348.53;;;23.67;100.00
57234;BME280;43090;52.604;13.318;2023-08-20T02:14:28;101364.16;;;23.81;100.00
57234;BME280;43090;52.604;13.318;2023-08-20T02:16:55;101355.69;;;23.68;100.00
57234;BME280;43090;52.604;13.318;2023-08-20T02:19:21;101359.75;;;23.49;100.00
57234;BME280;43090;52.604;13.318;2023-08-20T02:21:48;101360.53;;;23.57;100.00
57234;BME280;43090;52.604;13.318;2023-08-20T02:24:14;101376.94;;;23.57;100.00
57234;BME280;43090;52.604;13.318;2023-08-20T02:26:44;101370.06;;;23.61;100.00
57234;BME280;43090;52.604;13.318;2023-08-20T02:29:11;101371.47;;;23.57;100.00
57234;BME280;43090;52.604;13.318;2023-08-20T02:31:37;101354.91;;;23.27;100.00
57234;BME280;43090;52.604;13.318;2023-08-20T02:34:04;101370.06;;;23.61;100.00
57234;BME280;43090;52.604;13.318;2023-08-20T02:36:30;101390.03;;;23.70;100.00
57234;BME280;43090;52.604;13.318;2023-08-20T02:38:57;101383.34;;;23.73;100.00
57234;BME280;43090;52.604;13.318;2023-08-20T02:41:23;101376.72;;;23.67;100.00
57234;BME280;43090;52.604;13.318;2023-08-20T02:43:50;101387.34;;;23.62;100.00
57234;BME280;43090;52.604;13.318;2023-08-20T02:46:17;101382.25;;;23.59;100.00
57234;BME280;43090;52.604;13.318;2023-08-20T02:48:43;101393.88;;;23.53;100.00
57234;BME280;43090;52.604;13.318;2023-08-20T02:51:10;101381.25;;;23.52;100.00
57234;BME280;43090;52.604;13.318;2023-08-20T02:53:36;101387.41;;;23.54;100.00
57234;BME280;43090;52.604;13.318;2023-08-20T02:56:03;101387.69;;;23.27;100.00
57234;BME280;43090;52.604;13.318;2023-08-20T02:58:30;101392.59;;;23.40;100.00
57234;BME280;43090;52.604;13.318;2023-08-20T03:00:56;101388.16;;;23.39;100.00
57234;BME280;43090;52.604;13.318;2023-08-20T03:03:24;101383.94;;;23.28;100.00
57234;BME280;43090;52.604;13.318;2023-08-20T03:05:50;101392.03;;;23.45;100.00
57234;BME280;43090;52.604;13.318;2023-08-20T03:08:17;101401.22;;;23.21;100.00
57234;BME280;43090;52.604;13.318;2023-08-20T03:10:43;101387.22;;;23.16;100.00
57234;BME280;43090;52.604;13.318;2023-08-20T03:13:10;101386.53;;;23.05;100.00
57234;BME280;43090;52.604;13.318;2023-08-20T03:15:36;101402.84;;;23.38;100.00
57234;BME280;43090;52.604;13.318;2023-08-20T03:18:03;101421.72;;;23.48;100.00
57234;BME280;43090;52.604;13.318;2023-08-20T03:20:30;101419.63;;;23.19;100.00
57234;BME280;43090;52.604;13.318;2023-08-20T03:22:59;101416.88;;;23.27;100.00
57234;BME280;43090;52.604;13.318;2023-08-20T03:25:26;101420.47;;;23.27;100.00
57234;BME280;43090;52.604;13.318;2023-08-20T03:27:52;101407.00;;;23.18;100.00
57234;BME280;43090;52.604;13.318;2023-08-20T03:30:20;101413.94;;;23.37;100.00
57234;BME280;43090;52.604;13.318;2023-08-20T03:32:46;101408.81;;;23.34;100.00
57234;BME280;43090;52.604;13.318;2023-08-20T03:35:13;101410.19;;;23.29;100.00
57234;BME280;43090;52.604;13.318;2023-08-20T03:37:39;101425.34;;;23.49;100.00
57234;BME280;43090;52.604;13.318;2023-08-20T03:40:06;101408.53;;;23.28;100.00
57234;BME280;43090;52.604;13.318;2023-08-20T03:42:33;101411.34;;;23.43;100.00
57234;BME280;43090;52.604;13.318;2023-08-20T03:44:59;101418.03;;;23.41;100.00
57234;BME280;43090;52.604;13.318;2023-08-20T03:47:26;101415.34;;;23.24;100.00
57234;BME280;43090;52.604;13.318;2023-08-20T03:49:54;101410.00;;;23.39;100.00
57234;BME280;43090;52.604;13.318;2023-08-20T03:52:21;101422.16;;;23.37;100.00
57234;BME280;43090;52.604;13.318;2023-08-20T03:54:48;101429.78;;;23.41;100.00
57234;BME280;43090;52.604;13.318;2023-08-20T03:57:14;101430.47;;;23.43;100.00
57234;BME280;43090;52.604;13.318;2023-08-20T03:59:41;101444.31;;;23.42;100.00
57234;BME280;43090;52.604;13.318;2023-08-20T04:02:07;101451.25;;;23.05;100.00
57234;BME280;43090;52.604;13.318;2023-08-20T04:04:34;101434.88;;;22.88;100.00
57234;BME280;43090;52.604;13.318;2023-08-20T04:07:00;101443.72;;;23.07;100.00
57234;BME280;43090;52.604;13.318;2023-08-20T04:09:27;101442.72;;;22.91;100.00
57234;BME280;43090;52.604;13.318;2023-08-20T04:11:53;101443.88;;;23.05;100.00
57234;BME280;43090;52.604;13.318;2023-08-20T04:14:20;101443.56;;;23.00;100.00
57234;BME280;43090;52.604;13.318;2023-08-20T04:16:46;101435.06;;;22.87;100.00
57234;BME280;43090;52.604;13.318;2023-08-20T04:19:13;101450.38;;;23.04;100.00
57234;BME280;43090;52.604;13.318;2023-08-20T04:21:42;101440.69;;;22.85;100.00
57234;BME280;43090;52.604;13.318;2023-08-20T04:24:08;101433.66;;;23.07;100.00
57234;BME280;43090;52.604;13.318;2023-08-20T04:26:35;101448.84;;;23.18;100.00
57234;BME280;43090;52.604;13.318;2023-08-20T04:29:02;101445.56;;;23.23;100.00
57234;BME280;43090;52.604;13.318;2023-08-20T04:31:28;101461.41;;;23.36;100.00
57234;BME280;43090;52.604;13.318;2023-08-20T04:33:55;101431.59;;;23.09;100.00
57234;BME280;43090;52.604;13.318;2023-08-20T04:36:21;101451.56;;;23.02;100.00
57234;BME280;43090;52.604;13.318;2023-08-20T04:38:48;101450.72;;;23.01;100.00
57234;BME280;43090;52.604;13.318;2023-08-20T04:41:14;101443.06;;;23.05;100.00
57234;BME280;43090;52.604;13.318;2023-08-20T04:43:41;101452.22;;;23.12;100.00
57234;BME280;43090;52.604;13.318;2023-08-20T04:46:07;101445.44;;;23.16;100.00
57234;BME280;43090;52.604;13.318;2023-08-20T04:48:34;101456.00;;;23.27;100.00
57234;BME280;43090;52.604;13.318;2023-08-20T04:51:01;101456.31;;;23.33;100.00
57234;BME280;43090;52.604;13.318;2023-08-20T04:53:27;101454.53;;;23.48;100.00
57234;BME280;43090;52.604;13.318;2023-08-20T04:55:54;101455.28;;;23.25;100.00
57234;BME280;43090;52.604;13.318;2023-08-20T04:58:20;101455.47;;;23.24;100.00
57234;BME280;43090;52.604;13.318;2023-08-20T05:00:47;101444.06;;;23.04;100.00
57234;BME280;43090;52.604;13.318;2023-08-20T05:03:13;101458.06;;;23.17;100.00
57234;BME280;43090;52.604;13.318;2023-08-20T05:05:40;101470.69;;;23.18;100.00
57234;BME280;43090;52.604;13.318;2023-08-20T05:08:06;101469.81;;;23.26;100.00
57234;BME280;43090;52.604;13.318;2023-08-20T05:10:36;101474.25;;;23.10;100.00
57234;BME280;43090;52.604;13.318;2023-08-20T05:13:03;101467.78;;;23.20;100.00
57234;BME280;43090;52.604;13.318;2023-08-20T05:15:30;101481.06;;;23.39;100.00
57234;BME280;43090;52.604;13.318;2023-08-20T05:17:56;101469.09;;;23.32;100.00
57234;BME280;43090;52.604;13.318;2023-08-20T05:20:23;101479.25;;;23.63;100.00
57234;BME280;43090;52.604;13.318;2023-08-20T05:22:49;101476.09;;;23.35;100.00
57234;BME280;43090;52.604;13.318;2023-08-20T05:25:16;101482.59;;;23.42;100.00
57234;BME280;43090;52.604;13.318;2023-08-20T05:27:42;101476.97;;;23.35;100.00
57234;BME280;43090;52.604;13.318;2023-08-20T05:30:09;101494.91;;;23.29;100.00
57234;BME280;43090;52.604;13.318;2023-08-20T05:32:35;101493.22;;;23.28;100.00
57234;BME280;43090;52.604;13.318;2023-08-20T05:35:03;101501.41;;;23.28;100.00
57234;BME280;43090;52.604;13.318;2023-08-20T05:37:30;101501.81;;;23.57;100.00
57234;BME280;43090;52.604;13.318;2023-08-20T05:39:56;101513.44;;;23.59;100.00
57234;BME280;43090;52.604;13.318;2023-08-20T05:42:23;101502.47;;;23.19;100.00
57234;BME280;43090;52.604;13.318;2023-08-20T05:44:50;101515.25;;;23.67;100.00
57234;BME280;43090;52.604;13.318;2023-08-20T05:47:16;101496.88;;;23.52;100.00
57234;BME280;43090;52.604;13.318;2023-08-20T05:49:43;101513.13;;;23.54;100.00
57234;BME280;43090;52.604;13.318;2023-08-20T05:52:09;101510.25;;;23.31;100.00
57234;BME280;43090;52.604;13.318;2023-08-20T05:54:36;101523.94;;;23.31;100.00
57234;BME280;43090;52.604;13.318;2023-08-20T05:57:02;101507.19;;;23.42;100.00
57234;BME280;43090;52.604;13.318;2023-08-20T05:59:29;101492.47;;;23.43;100.00
57234;BME280;43090;52.604;13.318;2023-08-20T06:01:56;101492.06;;;23.62;100.00
57234;BME280;43090;52.604;13.318;2023-08-20T06:04:22;101529.34;;;23.55;100.00
57234;BME280;43090;52.604;13.318;2023-08-20T06:06:49;101521.19;;;23.31;100.00
57234;BME280;43090;52.604;13.318;2023-08-20T06:09:16;101528.97;;;23.58;100.00
57234;BME280;43090;52.604;13.318;2023-08-20T06:11:42;101513.63;;;23.49;100.00
57234;BME280;43090;52.604;13.318;2023-08-20T06:14:09;101499.44;;;23.45;100.00
57234;BME280;43090;52.604;13.318;2023-08-20T06:16:35;101511.38;;;23.61;100.00
57234;BME280;43090;52.604;13.318;2023-08-20T06:19:02;101514.53;;;23.81;100.00
57234;BME280;43090;52.604;13.318;2023-08-20T06:21:30;101529.91;;;23.18;100.00
57234;BME280;43090;52.604;13.318;2023-08-20T06:23:57;101541.84;;;23.33;100.00
57234;BME280;43090;52.604;13.318;2023-08-20T06:26:23;101512.00;;;23.15;100.00
57234;BME280;43090;52.604;13.318;2023-08-20T06:28:50;101541.25;;;23.62;100.00
57234;BME280;43090;52.604;13.318;2023-08-20T06:31:16;101529.72;;;23.36;100.00
57234;BME280;43090;52.604;13.318;2023-08-20T06:33:43;101550.53;;;23.45;100.00
57234;BME280;43090;52.604;13.318;2023-08-20T06:36:09;101545.75;;;23.39;100.00
57234;BME280;43090;52.604;13.318;2023-08-20T06:38:36;101549.88;;;23.26;100.00
57234;BME280;43090;52.604;13.318;2023-08-20T06:41:03;101556.31;;;23.58;100.00
57234;BME280;43090;52.604;13.318;2023-08-20T06:43:29;101541.88;;;23.00;100.00
57234;BME280;43090;52.604;13.318;2023-08-20T06:45:56;101551.28;;;23.22;100.00
57234;BME280;43090;52.604;13.318;2023-08-20T06:48:23;101537.91;;;23.44;100.00
57234;BME280;43090;52.604;13.318;2023-08-20T06:50:51;101542.38;;;23.37;100.00
57234;BME280;43090;52.604;13.318;2023-08-20T06:53:17;101559.38;;;23.63;100.00
57234;BME280;43090;52.604;13.318;2023-08-20T06:55:47;101555.00;;;23.29;100.00
57234;BME280;43090;52.604;13.318;2023-08-20T06:58:13;101548.81;;;23.44;100.00
57234;BME280;43090;52.604;13.318;2023-08-20T07:00:40;101569.75;;;23.76;100.00
57234;BME280;43090;52.604;13.318;2023-08-20T07:03:06;101581.28;;;23.47;100.00
57234;BME280;43090;52.604;13.318;2023-08-20T07:05:33;101573.56;;;23.51;100.00
57234;BME280;43090;52.604;13.318;2023-08-20T07:07:59;101563.72;;;23.33;100.00
57234;BME280;43090;52.604;13.318;2023-08-20T07:10:26;101592.84;;;23.57;100.00
57234;BME280;43090;52.604;13.318;2023-08-20T07:12:52;101555.84;;;23.05;100.00
57234;BME280;43090;52.604;13.318;2023-08-20T07:15:19;101589.66;;;23.54;100.00
57234;BME280;43090;52.604;13.318;2023-08-20T07:17:45;101580.25;;;23.40;100.00
57234;BME280;43090;52.604;13.318;2023-08-20T07:20:12;101599.22;;;23.33;99.08
57234;BME280;43090;52.604;13.318;2023-08-20T07:22:39;101599.72;;;23.04;100.00
57234;BME280;43090;52.604;13.318;2023-08-20T07:25:06;101596.00;;;23.38;99.96
57234;BME280;43090;52.604;13.318;2023-08-20T07:27:32;101597.00;;;23.37;100.00
57234;BME280;43090;52.604;13.318;2023-08-20T07:29:59;101582.34;;;23.38;98.43
57234;BME280;43090;52.604;13.318;2023-08-20T07:32:26;101610.66;;;23.45;98.06
57234;BME280;43090;52.604;13.318;2023-08-20T07:34:52;101602.81;;;23.17;100.00
57234;BME280;43090;52.604;13.318;2023-08-20T07:37:19;101618.19;;;23.18;100.00
57234;BME280;43090;52.604;13.318;2023-08-20T07:39:47;101607.94;;;23.37;99.76
57234;BME280;43090;52.604;13.318;2023-08-20T07:42:13;101613.38;;;23.53;99.32
57234;BME280;43090;52.604;13.318;2023-08-20T07:44:40;101605.56;;;23.17;100.00
57234;BME280;43090;52.604;13.318;2023-08-20T07:47:06;101617.50;;;23.16;100.00
57234;BME280;43090;52.604;13.318;2023-08-20T07:49:33;101610.84;;;23.35;100.00
57234;BME280;43090;52.604;13.318;2023-08-20T07:51:59;101609.78;;;23.53;100.00
57234;BME280;43090;52.604;13.318;2023-08-20T07:54:26;101611.50;;;23.54;98.62
57234;BME280;43090;52.604;13.318;2023-08-20T07:56:54;101608.88;;;23.93;97.37
57234;BME280;43090;52.604;13.318;2023-08-20T07:59:21;101624.75;;;23.73;93.64
57234;BME280;43090;52.604;13.318;2023-08-20T08:01:47;101625.19;;;24.10;92.91
57234;BME280;43090;52.604;13.318;2023-08-20T08:04:15;101605.88;;;23.55;95.08
57234;BME280;43090;52.604;13.318;2023-08-20T08:06:41;101605.03;;;24.11;91.90
57234;BME280;43090;52.604;13.318;2023-08-20T08:09:18;101609.91;;;25.10;83.43
57234;BME280;43090;52.604;13.318;2023-08-20T08:11:45;101607.34;;;25.08;82.08
57234;BME280;43090;52.604;13.318;2023-08-20T08:14:11;101618.72;;;24.97;84.10
57234;BME280;43090;52.604;13.318;2023-08-20T08:16:38;101625.75;;;25.00;83.29
57234;BME280;43090;52.604;13.318;2023-08-20T08:19:04;101615.50;;;25.17;81.40
57234;BME280;43090;52.604;13.318;2023-08-20T08:21:31;101605.09;;;25.50;81.43
57234;BME280;43090;52.604;13.318;2023-08-20T08:23:58;101624.75;;;25.39;78.99
57234;BME280;43090;52.604;13.318;2023-08-20T08:26:24;101609.63;;;25.43;77.20
57234;BME280;43090;52.604;13.318;2023-08-20T08:28:50;101622.63;;;25.64;75.75
57234;BME280;43090;52.604;13.318;2023-08-20T08:31:17;101621.09;;;25.76;76.47
57234;BME280;43090;52.604;13.318;2023-08-20T08:33:43;101625.34;;;25.26;77.49
57234;BME280;43090;52.604;13.318;2023-08-20T08:36:10;101620.22;;;25.61;77.83
57234;BME280;43090;52.604;13.318;2023-08-20T08:38:37;101616.03;;;25.35;77.43
57234;BME280;43090;52.604;13.318;2023-08-20T08:41:04;101615.59;;;25.23;78.64
57234;BME280;43090;52.604;13.318;2023-08-20T08:43:34;101603.06;;;24.59;81.68
57234;BME280;43090;52.604;13.318;2023-08-20T08:46:03;101601.72;;;25.02;79.10
57234;BME280;43090;52.604;13.318;2023-08-20T08:48:33;101603.94;;;25.06;76.12
57234;BME280;43090;52.604;13.318;2023-08-20T08:51:01;101598.41;;;24.68;76.76
57234;BME280;43090;52.604;13.318;2023-08-20T08:53:30;101601.63;;;24.72;75.22
57234;BME280;43090;52.604;13.318;2023-08-20T08:55:58;101601.81;;;24.93;77.24
57234;BME280;43090;52.604;13.318;2023-08-20T08:58:25;101597.34;;;25.16;75.50
57234;BME280;43090;52.604;13.318;2023-08-20T09:00:52;101594.03;;;24.82;78.55
57234;BME280;43090;52.604;13.318;2023-08-20T09:03:19;101591.91;;;24.69;78.75
57234;BME280;43090;52.604;13.318;2023-08-20T09:05:50;101574.91;;;24.74;82.11
57234;BME280;43090;52.604;13.318;2023-08-20T09:08:27;101604.03;;;25.13;75.34
57234;BME280;43090;52.604;13.318;2023-08-20T09:10:56;101611.81;;;24.86;75.64
57234;BME280;43090;52.604;13.318;2023-08-20T09:13:32;101599.66;;;25.04;74.03
57234;BME280;43090;52.604;13.318;2023-08-20T09:16:03;101597.81;;;24.81;74.16
57234;BME280;43090;52.604;13.318;2023-08-20T09:18:30;101590.03;;;25.31;74.33
57234;BME280;43090;52.604;13.318;2023-08-20T09:20:57;101590.72;;;25.10;74.58
57234;BME280;43090;52.604;13.318;2023-08-20T09:23:28;101611.06;;;25.54;74.68
57234;BME280;43090;52.604;13.318;2023-08-20T09:25:54;101607.09;;;25.18;73.43
57234;BME280;43090;52.604;13.318;2023-08-20T09:28:21;101578.31;;;25.37;70.79
57234;BME280;43090;52.604;13.318;2023-08-20T09:30:58;101577.38;;;25.45;72.87
57234;BME280;43090;52.604;13.318;2023-08-20T09:33:27;101588.25;;;25.53;74.21
57234;BME280;43090;52.604;13.318;2023-08-20T09:35:55;101597.75;;;25.66;74.51
57234;BME280;43090;52.604;13.318;2023-08-20T09:38:23;101587.72;;;25.58;72.82
57234;BME280;43090;52.604;13.318;2023-08-20T09:40:52;101615.25;;;25.94;70.78
57234;BME280;43090;52.604;13.318;2023-08-20T09:43:19;101612.78;;;25.85;66.24
57234;BME280;43090;52.604;13.318;2023-08-20T09:45:47;101598.41;;;25.98;65.93
57234;BME280;43090;52.604;13.318;2023-08-20T09:48:18;101611.81;;;25.92;67.42
57234;BME280;43090;52.604;13.318;2023-08-20T09:50:50;101614.97;;;25.89;66.18
57234;BME280;43090;52.604;13.318;2023-08-20T09:53:34;101627.81;;;25.89;68.26
57234;BME280;43090;52.604;13.318;2023-08-20T09:56:12;101626.50;;;25.70;66.55
57234;BME280;43090;52.604;13.318;2023-08-20T09:58:41;101609.84;;;25.86;67.69
57234;BME280;43090;52.604;13.318;2023-08-20T10:01:12;101618.44;;;25.83;66.37
57234;BME280;43090;52.604;13.318;2023-08-20T10:03:39;101615.63;;;25.76;67.48
57234;BME280;43090;52.604;13.318;2023-08-20T10:06:08;101603.59;;;25.63;65.39
57234;BME280;43090;52.604;13.318;2023-08-20T10:13:25;101637.28;;;26.16;64.34
57234;BME280;43090;52.604;13.318;2023-08-20T10:16:17;101611.06;;;25.99;61.28
57234;BME280;43090;52.604;13.318;2023-08-20T10:18:47;101602.44;;;26.02;61.66
57234;BME280;43090;52.604;13.318;2023-08-20T10:21:14;101612.28;;;26.41;61.51
57234;BME280;43090;52.604;13.318;2023-08-20T10:23:41;101585.09;;;26.46;61.82
57234;BME280;43090;52.604;13.318;2023-08-20T10:26:10;101603.81;;;26.06;61.72
57234;BME280;43090;52.604;13.318;2023-08-20T10:28:36;101581.00;;;26.42;60.45
57234;BME280;43090;52.604;13.318;2023-08-20T10:31:04;101602.16;;;26.26;59.38
57234;BME280;43090;52.604;13.318;2023-08-20T10:33:38;101609.91;;;26.38;58.75
57234;BME280;43090;52.604;13.318;2023-08-20T10:36:14;101592.50;;;26.67;62.34
57234;BME280;43090;52.604;13.318;2023-08-20T10:38:49;101567.09;;;26.43;60.79
57234;BME280;43090;52.604;13.318;2023-08-20T10:41:24;101609.19;;;26.29;60.22
57234;BME280;43090;52.604;13.318;2023-08-20T10:43:51;101596.00;;;26.61;58.98
57234;BME280;43090;52.604;13.318;2023-08-20T10:46:23;101591.34;;;26.61;58.51
57234;BME280;43090;52.604;13.318;2023-08-20T10:48:56;101594.75;;;26.79;59.22
57234;BME280;43090;52.604;13.318;2023-08-20T10:51:26;101606.56;;;27.01;55.54
57234;BME280;43090;52.604;13.318;2023-08-20T10:56:45;101619.22;;;26.95;58.06
57234;BME280;43090;52.604;13.318;2023-08-20T10:59:22;101602.19;;;26.85;58.60
57234;BME280;43090;52.604;13.318;2023-08-20T11:01:54;101581.06;;;26.85;57.30
57234;BME280;43090;52.604;13.318;2023-08-20T11:04:27;101597.16;;;27.10;58.56
57234;BME280;43090;52.604;13.318;2023-08-20T11:06:56;101586.56;;;26.85;56.99
57234;BME280;43090;52.604;13.318;2023-08-20T11:09:29;101600.63;;;26.97;57.84
57234;BME280;43090;52.604;13.318;2023-08-20T11:12:10;101580.25;;;27.13;59.10
57234;BME280;43090;52.604;13.318;2023-08-20T11:18:21;101603.78;;;26.94;57.80
57234;BME280;43090;52.604;13.318;2023-08-20T11:20:50;101603.88;;;27.07;57.49
57234;BME280;43090;52.604;13.318;2023-08-20T11:23:17;101576.47;;;27.14;55.29
57234;BME280;43090;52.604;13.318;2023-08-20T11:25:43;101598.75;;;27.26;57.70
57234;BME280;43090;52.604;13.318;2023-08-20T11:28:10;101609.59;;;27.34;55.43
57234;BME280;43090;52.604;13.318;2023-08-20T11:30:36;101605.91;;;27.20;53.33
57234;BME280;43090;52.604;13.318;2023-08-20T11:33:03;101616.25;;;26.97;54.38
57234;BME280;43090;52.604;13.318;2023-08-20T11:35:30;101607.88;;;27.05;55.21
57234;BME280;43090;52.604;13.318;2023-08-20T11:37:56;101611.47;;;27.27;55.34
57234;BME280;43090;52.604;13.318;2023-08-20T11:40:23;101592.75;;;27.37;55.93
57234;BME280;43090;52.604;13.318;2023-08-20T11:42:55;101595.22;;;27.60;56.34
57234;BME280;43090;52.604;13.318;2023-08-20T11:45:26;101575.69;;;27.49;56.34
57234;BME280;43090;52.604;13.318;2023-08-20T11:47:56;101582.84;;;27.43;53.05
57234;BME280;43090;52.604;13.318;2023-08-20T11:50:27;101596.84;;;27.26;54.68
57234;BME280;43090;52.604;13.318;2023-08-20T11:52:53;101587.28;;;27.44;55.20
57234;BME280;43090;52.604;13.318;2023-08-20T11:55:24;101605.13;;;27.33;56.66
57234;BME280;43090;52.604;13.318;2023-08-20T11:57:52;101587.28;;;27.22;54.75
57234;BME280;43090;52.604;13.318;2023-08-20T12:00:26;101577.22;;;27.30;52.11
57234;BME280;43090;52.604;13.318;2023-08-20T12:02:54;101572.97;;;27.27;56.76
57234;BME280;43090;52.604;13.318;2023-08-20T12:05:28;101587.38;;;27.57;55.40
57234;BME280;43090;52.604;13.318;2023-08-20T12:08:04;101569.47;;;27.12;54.89
57234;BME280;43090;52.604;13.318;2023-08-20T12:10:34;101563.81;;;27.41;53.94
57234;BME280;43090;52.604;13.318;2023-08-20T12:13:01;101597.63;;;28.12;51.32
57234;BME280;43090;52.604;13.318;2023-08-20T12:15:28;101586.31;;;27.93;49.98
57234;BME280;43090;52.604;13.318;2023-08-20T12:17:59;101556.72;;;27.60;51.60
57234;BME280;43090;52.604;13.318;2023-08-20T12:20:30;101578.88;;;27.94;51.57
57234;BME280;43090;52.604;13.318;2023-08-20T12:23:06;101565.97;;;27.88;53.96
57234;BME280;43090;52.604;13.318;2023-08-20T12:25:34;101572.66;;;28.14;50.61
57234;BME280;43090;52.604;13.318;2023-08-20T12:28:03;101587.47;;;28.13;51.11
57234;BME280;43090;52.604;13.318;2023-08-20T12:30:58;101572.28;;;27.82;49.07
57234;BME280;43090;52.604;13.318;2023-08-20T12:33:29;101575.50;;;27.92;49.83
57234;BME280;43090;52.604;13.318;2023-08-20T12:35:58;101567.56;;;28.11;48.88
57234;BME280;43090;52.604;13.318;2023-08-20T12:38:28;101572.69;;;28.20;47.23
57234;BME280;43090;52.604;13.318;2023-08-20T12:41:12;101574.03;;;28.38;48.11
57234;BME280;43090;52.604;13.318;2023-08-20T12:43:39;101571.59;;;28.08;45.03
57234;BME280;43090;52.604;13.318;2023-08-20T12:46:06;101583.75;;;28.40;48.15
57234;BME280;43090;52.604;13.318;2023-08-20T12:48:35;101562.56;;;28.28;47.50
57234;BME280;43090;52.604;13.318;2023-08-20T12:51:21;101560.41;;;28.30;47.82
57234;BME280;43090;52.604;13.318;2023-08-20T12:53:48;101579.78;;;28.63;47.06
57234;BME280;43090;52.604;13.318;2023-08-20T12:56:15;101576.78;;;28.38;45.38
57234;BME280;43090;52.604;13.318;2023-08-20T12:58:43;101563.03;;;28.58;43.99
57234;BME280;43090;52.604;13.318;2023-08-20T13:01:11;101574.41;;;28.35;42.42
57234;BME280;43090;52.604;13.318;2023-08-20T13:03:43;101546.03;;;28.34;45.07
57234;BME280;43090;52.604;13.318;2023-08-20T13:06:11;101563.84;;;28.38;47.24
57234;BME280;43090;52.604;13.318;2023-08-20T13:15:43;101578.94;;;28.63;39.03
57234;BME280;43090;52.604;13.318;2023-08-20T13:18:12;101573.47;;;28.76;41.18
57234;BME280;43090;52.604;13.318;2023-08-20T13:20:48;101574.44;;;28.48;39.63
57234;BME280;43090;52.604;13.318;2023-08-20T13:23:20;101585.09;;;28.58;39.75
57234;BME280;43090;52.604;13.318;2023-08-20T13:25:47;101583.00;;;28.80;39.40